Gobblers Point, Arkansas
Current Conditions -  °F | °C
As of 1:53 PM on Wednesday 28 Jan 2015 (Local Time) from KRUE Reporting Station
Clear Clear  
Wind Chill: 17°   Ceiling: Unl
Heat Index: 17°   Visibility: 10mi
Dew Point:   Wind: 8mph
Humidity: 41%   Direction: 110°ESE
Pressure: 30.07"   Gusts: NA
Location:  35.3927°N, 92.8078°W
Report Text: KRUE 281953Z AUTO 11007KT 10SM CLR 17/04 A3007 RMK AO2 SLP179 T01720039
Loading
Personal Weather Stations






























Interactive Weather Map New forecast layout! Learn more

10-Day Weather Forecast

Advertisements
Track Severe Weather on mobile